createdAt,value
2018-05-21T00:09:05.765Z,21.7
2018-05-21T00:19:05.049Z,21.7
2018-05-21T00:29:03.648Z,21.7
2018-05-21T00:39:02.926Z,21.7
2018-05-21T00:49:02.680Z,21.7
2018-05-21T00:59:01.650Z,21.7
2018-05-21T01:09:00.669Z,21.7
2018-05-21T01:19:00.213Z,21.7
2018-05-21T01:28:59.021Z,21.7
2018-05-21T01:38:58.121Z,21.7
2018-05-21T01:48:57.387Z,21.6
2018-05-21T01:58:57.274Z,21.6
2018-05-21T02:08:56.506Z,21.6
2018-05-21T02:18:55.113Z,21.6
2018-05-21T02:28:54.639Z,21.6
2018-05-21T02:38:53.492Z,21.6
2018-05-21T02:48:53.920Z,21.5
2018-05-21T02:58:52.457Z,21.5
2018-05-21T03:08:51.362Z,21.6
2018-05-21T03:18:50.348Z,21.6
2018-05-21T03:28:49.521Z,21.8
2018-05-21T03:38:49.726Z,21.8
2018-05-21T03:48:48.024Z,21.8
2018-05-21T03:58:47.196Z,21.7
2018-05-21T04:08:47.094Z,21.5
2018-05-21T04:18:45.803Z,21.4
2018-05-21T04:28:44.965Z,21.3
2018-05-21T04:38:44.418Z,21.3
2018-05-21T04:48:43.325Z,21.4
2018-05-21T04:58:42.805Z,21.4
2018-05-21T05:08:41.895Z,21.6
2018-05-21T05:18:41.718Z,21.6
2018-05-21T05:28:40.798Z,21.8
2018-05-21T05:38:39.590Z,21.9
2018-05-21T05:48:39.142Z,22
2018-05-21T05:58:38.116Z,22
2018-05-21T06:08:37.417Z,22.1
2018-05-21T06:18:36.410Z,22.1
2018-05-21T06:28:35.795Z,22.1
2018-05-21T06:38:34.671Z,22.1
2018-05-21T06:48:33.919Z,22.1
2018-05-21T06:58:33.388Z,22.2
2018-05-21T07:08:33.202Z,22.2
2018-05-21T07:18:32.756Z,22.3
2018-05-21T07:28:31.450Z,22.3
2018-05-21T07:38:30.059Z,22.3
2018-05-21T07:48:29.756Z,22.3
2018-05-21T07:58:28.395Z,22.3
2018-05-21T08:08:28.035Z,22.3
2018-05-21T08:18:26.979Z,22.3
2018-05-21T08:28:26.675Z,22.3
2018-05-21T08:38:26.008Z,22.1
2018-05-21T08:48:24.921Z,22.1
2018-05-21T08:58:24.134Z,22.1
2018-05-21T09:08:22.979Z,22
2018-05-21T09:18:23.113Z,21.9
2018-05-21T09:28:21.356Z,21.9
2018-05-21T09:38:20.743Z,21.9
2018-05-21T09:48:19.792Z,21.9
2018-05-21T09:58:19.693Z,22
2018-05-21T10:08:18.490Z,22
2018-05-21T10:18:17.693Z,22
2018-05-21T10:28:17.844Z,22.1
2018-05-21T10:38:16.868Z,22.1
2018-05-21T10:48:15.831Z,22.1
2018-05-21T10:58:14.981Z,22
2018-05-21T11:08:14.169Z,21.9
2018-05-21T11:18:14.052Z,21.9
2018-05-21T11:28:11.992Z,21.9
2018-05-21T11:38:11.531Z,21.9
2018-05-21T11:48:10.413Z,22
2018-05-21T11:58:09.725Z,22.1
2018-05-21T12:08:09.926Z,22.1
2018-05-21T12:18:08.267Z,22.1
2018-05-21T12:28:07.568Z,22.1
2018-05-21T12:38:06.960Z,22.2
2018-05-21T12:48:05.734Z,22.2
2018-05-21T12:58:05.175Z,22.2
2018-05-21T13:08:04.379Z,22.3
2018-05-21T13:18:03.701Z,22.3
2018-05-21T13:28:03.308Z,22.4
2018-05-21T13:38:02.873Z,22.4
2018-05-21T13:48:01.868Z,22.4
2018-05-21T13:58:01.186Z,22.5
2018-05-21T14:07:59.662Z,22.5
2018-05-21T14:17:59.255Z,22.5
2018-05-21T14:27:58.608Z,22.5
2018-05-21T14:37:57.628Z,22.6
2018-05-21T14:47:56.310Z,22.6
2018-05-21T14:57:56.207Z,22.6
2018-05-21T15:07:54.816Z,22.6
2018-05-21T15:17:54.625Z,22.6
2018-05-21T15:27:54.865Z,22.6
2018-05-21T15:37:52.432Z,22.6
2018-05-21T15:47:51.663Z,22.6
2018-05-21T15:57:51.004Z,22.5
2018-05-21T16:07:50.271Z,22.4
2018-05-21T16:17:50.717Z,22.4
2018-05-21T16:27:49.819Z,22.4
2018-05-21T16:37:48.183Z,22.3
2018-05-21T16:47:48.100Z,22.3
2018-05-21T16:57:46.322Z,22.3
2018-05-21T17:07:46.440Z,22.3
2018-05-21T17:17:45.943Z,22.3
2018-05-21T17:27:44.024Z,22.2
2018-05-21T17:37:43.714Z,22.2
2018-05-21T17:47:42.339Z,22.2
2018-05-21T17:57:41.570Z,22.3
2018-05-21T18:07:41.675Z,22.3
2018-05-21T18:17:39.995Z,22.3
2018-05-21T18:27:39.357Z,22.3
2018-05-21T18:37:39.611Z,22.3
2018-05-21T18:47:38.235Z,22.3
2018-05-21T18:57:37.736Z,22.3
2018-05-21T19:07:36.889Z,22.4
2018-05-21T19:17:36.265Z,22.3
2018-05-21T19:27:34.503Z,22.2
2018-05-21T19:37:34.004Z,22.1
2018-05-21T19:47:33.002Z,22.1
2018-05-21T19:57:32.864Z,22.1
2018-05-21T20:07:31.588Z,22.1
2018-05-21T20:17:30.792Z,21.9
2018-05-21T20:27:30.041Z,21.8
2018-05-21T20:37:29.564Z,21.6
2018-05-21T20:47:28.805Z,21.6
2018-05-21T20:57:28.153Z,21.4
2018-05-21T21:07:27.523Z,21.4
2018-05-21T21:17:26.237Z,21.3
2018-05-21T21:27:25.668Z,21.3
2018-05-21T21:37:25.259Z,21.2
2018-05-21T21:47:24.169Z,21.2
2018-05-21T21:57:22.881Z,21.2
2018-05-21T22:07:22.261Z,21.1
2018-05-21T22:17:21.615Z,21
2018-05-21T22:27:20.702Z,20.9
2018-05-21T22:37:20.147Z,20.9
2018-05-21T22:47:19.551Z,20.8
2018-05-21T22:57:18.488Z,20.6
2018-05-21T23:07:17.293Z,20.5
2018-05-21T23:17:16.913Z,20.3
2018-05-21T23:27:15.976Z,20.2
2018-05-21T23:37:15.183Z,20.1
2018-05-21T23:47:14.723Z,20
2018-05-21T23:57:13.969Z,19.9
